Terminal Aerodrome Forecast
Issued by NWS

Home | Current Version | Previous Version | Text Only | Print | Product List | Glossary On
Versions: 1 2 3 4 5 6 7 8 9 10 11 12 13 14 15 16 17 18 19 20 21 22 23 24 25 26 27 28 29 30 31 32 33 34 35 36
000
FTUS45 KPSR 041128
TAFSDL
TAF
KSDL 041128Z 0412/0512 VRB04KT P6SM SCT120 SCT250
      TEMPO 0412/0416 BKN120 BKN250
     FM041900 16007KT P6SM FEW100 SCT250
     FM050000 16010KT P6SM VCTS FEW100CB BKN200
     FM050300 VRB05KT P6SM SCT090 BKN150=

USA.gov is the U.S. government's official web portal to all federal, state and local government web resources and services.